createdAt,value
2019-02-03T00:00:28.826Z,85.63
2019-02-03T00:05:32.274Z,82.03
2019-02-03T00:10:35.668Z,82.53
2019-02-03T00:15:38.978Z,77.37
2019-02-03T00:20:42.428Z,78.90
2019-02-03T00:25:45.943Z,70.70
2019-02-03T00:30:49.021Z,69.77
2019-02-03T00:35:52.699Z,72.23
2019-02-03T00:40:56.439Z,76.77
2019-02-03T00:46:00.245Z,78.57
2019-02-03T00:51:03.382Z,83.53
2019-02-03T00:56:06.491Z,92.33
2019-02-03T01:01:09.898Z,85.73
2019-02-03T01:06:13.441Z,88.27
2019-02-03T01:11:16.843Z,88.00
2019-02-03T01:16:19.914Z,85.00
2019-02-03T01:21:23.026Z,85.97
2019-02-03T01:26:26.438Z,89.67
2019-02-03T01:31:29.854Z,87.13
2019-02-03T01:36:33.563Z,88.37
2019-02-03T01:41:37.248Z,86.63
2019-02-03T01:46:40.327Z,79.80
2019-02-03T01:51:43.736Z,80.87
2019-02-03T01:56:46.809Z,85.17
2019-02-03T02:01:50.201Z,87.50
2019-02-03T02:06:53.566Z,86.43
2019-02-03T02:11:56.645Z,85.80
2019-02-03T02:17:00.314Z,87.63
2019-02-03T02:22:03.695Z,86.47
2019-02-03T02:27:07.149Z,86.63
2019-02-03T02:32:10.527Z,86.60
2019-02-03T02:37:14.233Z,85.83
2019-02-03T02:42:17.303Z,83.07
2019-02-03T02:47:20.962Z,83.43
2019-02-03T02:52:24.423Z,81.57
2019-02-03T02:57:27.578Z,79.17
2019-02-03T03:02:30.653Z,84.70
2019-02-03T03:07:35.227Z,80.87
2019-02-03T03:12:38.295Z,85.13
2019-02-03T03:17:41.366Z,82.97
2019-02-03T03:22:45.108Z,83.17
2019-02-03T03:27:48.945Z,94.03
2019-02-03T03:32:52.029Z,91.40
2019-02-03T03:37:55.424Z,95.43
2019-02-03T03:42:58.818Z,94.93
2019-02-03T03:48:01.910Z,106.10
2019-02-03T03:53:04.973Z,97.37
2019-02-03T03:58:08.674Z,91.00
2019-02-03T04:03:12.389Z,83.00
2019-02-03T04:08:15.744Z,83.77
2019-02-03T04:13:19.197Z,74.63
2019-02-03T04:18:22.557Z,80.00
2019-02-03T04:23:25.688Z,77.23
2019-02-03T04:28:29.073Z,80.40
2019-02-03T04:33:32.773Z,88.97
2019-02-03T04:38:35.843Z,98.67
2019-02-03T04:43:39.256Z,86.13
2019-02-03T04:48:42.634Z,90.63
2019-02-03T04:53:45.736Z,103.97
2019-02-03T04:58:48.856Z,118.27
2019-02-03T05:03:52.555Z,116.93
2019-02-03T05:08:56.276Z,125.70
2019-02-03T05:13:59.987Z,116.73
2019-02-03T05:19:03.427Z,118.47
2019-02-03T05:24:06.856Z,120.30
2019-02-03T05:29:09.930Z,121.17
2019-02-03T05:34:13.345Z,119.77
2019-02-03T05:39:25.103Z,129.40
2019-02-03T05:44:22.127Z,126.23
2019-02-03T05:49:25.215Z,122.27
2019-02-03T05:54:28.860Z,129.43
2019-02-03T05:59:32.280Z,121.80
2019-02-03T06:04:35.360Z,114.10
2019-02-03T06:09:38.771Z,124.60
2019-02-03T06:14:42.432Z,121.50
2019-02-03T06:19:45.534Z,115.67
2019-02-03T06:24:51.754Z,115.33
2019-02-03T06:29:54.312Z,115.97
2019-02-03T06:34:58.416Z,108.40
2019-02-03T06:40:02.136Z,120.37
2019-02-03T06:45:08.861Z,110.50
2019-02-03T06:50:11.987Z,114.00
2019-02-03T06:55:15.368Z,119.70
2019-02-03T07:00:20.401Z,110.50
2019-02-03T07:05:23.731Z,115.97
2019-02-03T07:10:26.818Z,111.67
2019-02-03T07:15:30.545Z,110.47
2019-02-03T07:20:33.955Z,109.07
2019-02-03T07:25:37.392Z,110.80
2019-02-03T07:30:40.466Z,103.10
2019-02-03T07:35:43.871Z,116.80
2019-02-03T07:40:46.955Z,111.95
2019-02-03T07:45:50.645Z,119.57
2019-02-03T07:50:54.056Z,116.60
2019-02-03T07:55:57.762Z,111.97
2019-02-03T08:01:00.902Z,111.60
2019-02-03T08:06:04.582Z,105.37
2019-02-03T08:11:07.919Z,97.10
2019-02-03T08:16:11.335Z,85.20
2019-02-03T08:21:21.234Z,86.63
2019-02-03T08:26:24.654Z,79.77
2019-02-03T08:31:28.851Z,83.40
2019-02-03T08:36:31.999Z,72.20
2019-02-03T08:41:35.079Z,71.43
2019-02-03T08:46:38.473Z,70.30
2019-02-03T08:51:41.881Z,62.87
2019-02-03T08:56:45.301Z,66.23
2019-02-03T09:01:48.379Z,56.00
2019-02-03T09:06:51.458Z,54.00
2019-02-03T09:11:54.555Z,51.50
2019-02-03T09:16:57.949Z,51.60
2019-02-03T09:22:01.659Z,50.90
2019-02-03T09:27:06.538Z,46.03
2019-02-03T09:32:11.321Z,46.03
2019-02-03T09:37:14.875Z,39.50
2019-02-03T09:42:18.474Z,38.47
2019-02-03T09:47:21.572Z,38.90
2019-02-03T09:52:26.758Z,38.57
2019-02-03T09:57:30.493Z,41.33
2019-02-03T10:02:34.187Z,40.27
2019-02-03T10:07:37.615Z,36.75
2019-02-03T10:12:41.028Z,36.43
2019-02-03T10:17:44.127Z,34.10
2019-02-03T10:22:47.601Z,35.57
2019-02-03T10:27:50.772Z,33.50
2019-02-03T10:32:54.224Z,32.10
2019-02-03T10:37:57.903Z,24.73
2019-02-03T10:43:01.539Z,29.13
2019-02-03T10:48:06.148Z,27.53
2019-02-03T10:53:10.804Z,24.43
2019-02-03T10:58:14.518Z,25.20
2019-02-03T11:03:18.239Z,27.67
2019-02-03T11:08:21.686Z,26.53
2019-02-03T11:13:26.002Z,27.67
2019-02-03T11:18:29.347Z,31.80
2019-02-03T11:23:33.094Z,26.67
2019-02-03T11:28:36.869Z,29.20
2019-02-03T11:33:40.273Z,32.07
2019-02-03T11:38:44.091Z,31.53
2019-02-03T11:43:47.433Z,32.43
2019-02-03T11:48:50.883Z,27.53
2019-02-03T11:53:54.344Z,25.93
2019-02-03T11:58:57.442Z,25.33
2019-02-03T12:04:00.564Z,27.20
2019-02-03T12:09:05.567Z,24.87
2019-02-03T12:14:08.943Z,25.17
2019-02-03T12:19:12.627Z,19.57
2019-02-03T12:24:16.093Z,17.57
2019-02-03T12:29:19.569Z,17.43
2019-02-03T12:34:22.910Z,16.53
2019-02-03T12:39:29.073Z,10.37
2019-02-03T12:44:32.168Z,11.07
2019-02-03T12:49:35.991Z,10.73
2019-02-03T12:54:40.019Z,12.43
2019-02-03T12:59:43.106Z,7.53
2019-02-03T13:04:46.218Z,8.37
2019-02-03T13:09:49.665Z,6.20
2019-02-03T13:14:53.079Z,7.03
2019-02-03T13:19:56.517Z,10.17
2019-02-03T13:24:59.604Z,7.40
2019-02-03T13:30:04.106Z,7.17
2019-02-03T13:35:07.866Z,6.03
2019-02-03T13:40:11.622Z,5.10
2019-02-03T13:45:21.031Z,4.17
2019-02-03T13:50:24.271Z,5.80
2019-02-03T13:55:28.981Z,4.10
2019-02-03T14:00:33.450Z,4.30
2019-02-03T14:05:36.567Z,4.73
2019-02-03T14:10:39.911Z,3.97
2019-02-03T14:15:43.270Z,7.27
2019-02-03T14:20:46.757Z,4.73
2019-02-03T14:25:52.604Z,5.47
2019-02-03T14:30:55.800Z,4.13
2019-02-03T14:35:59.206Z,5.10
2019-02-03T14:41:02.802Z,6.50
2019-02-03T14:46:06.536Z,5.40
2019-02-03T14:51:09.792Z,8.13
2019-02-03T14:56:13.208Z,5.60
2019-02-03T15:01:16.304Z,4.97
2019-02-03T15:06:20.067Z,8.43
2019-02-03T15:11:23.806Z,6.85
2019-02-03T15:16:27.237Z,12.47
2019-02-03T15:21:30.658Z,13.30
2019-02-03T15:26:34.046Z,7.40
2019-02-03T15:31:37.466Z,7.53
2019-02-03T15:36:40.580Z,13.32
2019-02-03T15:41:43.942Z,8.67
2019-02-03T15:46:47.026Z,9.23
2019-02-03T15:51:50.402Z,8.60
2019-02-03T15:56:54.118Z,8.63
2019-02-03T16:01:57.546Z,7.93
2019-02-03T16:07:00.653Z,5.80
2019-02-03T16:12:03.814Z,11.37
2019-02-03T16:17:07.156Z,8.60
2019-02-03T16:22:10.808Z,8.83
2019-02-03T16:27:15.094Z,8.87
2019-02-03T16:32:18.395Z,8.30
2019-02-03T16:37:22.158Z,7.73
2019-02-03T16:42:25.635Z,6.92
2019-02-03T16:47:28.990Z,8.67
2019-02-03T16:52:32.163Z,9.23
2019-02-03T16:57:36.211Z,9.77
2019-02-03T17:02:39.306Z,6.43
2019-02-03T17:07:42.477Z,8.20
2019-02-03T17:12:46.097Z,7.20
2019-02-03T17:17:49.201Z,6.37
2019-02-03T17:22:52.814Z,6.50
2019-02-03T17:27:55.919Z,6.70
2019-02-03T17:32:59.047Z,7.90
2019-02-03T17:38:02.237Z,10.20
2019-02-03T17:48:51.463Z,8.00
2019-02-03T17:53:54.778Z,8.27
2019-02-03T17:58:58.338Z,6.80
2019-02-03T18:04:02.116Z,9.87
2019-02-03T18:09:07.950Z,6.97
2019-02-03T18:14:11.879Z,7.77
2019-02-03T18:19:15.827Z,8.60
2019-02-03T18:24:19.340Z,7.63
2019-02-03T18:29:22.802Z,6.67
2019-02-03T18:34:26.374Z,8.87
2019-02-03T18:39:29.743Z,7.67
2019-02-03T18:44:35.997Z,7.70
2019-02-03T18:49:38.486Z,6.97
2019-02-03T18:54:41.802Z,9.20
2019-02-03T18:59:45.443Z,10.07
2019-02-03T19:04:48.947Z,11.23
2019-02-03T19:09:52.842Z,13.40
2019-02-03T19:14:56.468Z,13.73
2019-02-03T19:20:00.000Z,15.23
2019-02-03T19:25:04.416Z,14.03
2019-02-03T19:30:09.426Z,16.63
2019-02-03T19:35:14.212Z,16.50
2019-02-03T19:40:21.411Z,15.00
2019-02-03T19:45:27.382Z,16.80
2019-02-03T19:50:31.936Z,16.17
2019-02-03T19:55:35.260Z,15.70
2019-02-03T20:00:39.987Z,17.53
2019-02-03T20:05:43.571Z,18.20
2019-02-03T20:10:47.423Z,20.07
2019-02-03T20:15:50.934Z,16.23
2019-02-03T20:20:54.497Z,15.77
2019-02-03T20:25:57.714Z,13.57
2019-02-03T20:31:00.904Z,14.03
2019-02-03T20:36:06.362Z,13.20
2019-02-03T20:41:10.235Z,13.43
2019-02-03T20:46:15.538Z,12.73
2019-02-03T20:51:19.038Z,13.10
2019-02-03T20:56:22.196Z,15.50
2019-02-03T21:01:25.686Z,13.03
2019-02-03T21:06:29.195Z,13.17
2019-02-03T21:11:33.311Z,11.37
2019-02-03T21:16:37.089Z,12.17
2019-02-03T21:21:40.258Z,11.78
2019-02-03T21:26:43.652Z,12.43
2019-02-03T21:31:47.415Z,11.30
2019-02-03T21:36:50.916Z,12.43
2019-02-03T21:41:54.452Z,11.93
2019-02-03T21:46:58.542Z,12.83
2019-02-03T21:52:02.015Z,15.30
2019-02-03T21:57:05.639Z,11.97
2019-02-03T22:02:09.109Z,11.13
2019-02-03T22:07:12.822Z,10.67
2019-02-03T22:12:16.271Z,14.70
2019-02-03T22:17:20.106Z,16.37
2019-02-03T22:22:24.091Z,10.97
2019-02-03T22:27:27.617Z,11.73
2019-02-03T22:32:30.755Z,11.60
2019-02-03T22:37:34.194Z,14.73
2019-02-03T22:42:37.329Z,12.65
2019-02-03T22:47:40.450Z,13.73
2019-02-03T22:52:43.571Z,12.90
2019-02-03T22:57:47.431Z,18.20
2019-02-03T23:02:51.421Z,15.03
2019-02-03T23:07:55.234Z,16.03
2019-02-03T23:12:58.924Z,14.67
2019-02-03T23:18:02.674Z,14.13
2019-02-03T23:23:05.914Z,18.33
2019-02-03T23:28:09.317Z,14.67
2019-02-03T23:33:12.482Z,14.97
2019-02-03T23:38:15.650Z,15.13
2019-02-03T23:43:19.477Z,20.80
2019-02-03T23:48:22.970Z,14.07
2019-02-03T23:53:26.438Z,14.63
2019-02-03T23:58:30.510Z,18.60
